CHH7210 ZSJN-ZGGG
Flight info
| Callsign | CHH7210 |
|---|---|
| Flight time | 2h 19m |
| Altitude | 34100 |
| Route | K0911S1190 ABT81D ABTUB A593 DPX/K0911S1220 W126 DO W125 XUZ W127 ATVIM/K0911S1250 W127 HFE/K0917S1220 H2 P468 DCT EMRAL/K0915S1250 W105 NCH DCT KHN/K0919S1220 DCT RUNEK W19 OLPAB OLPAB3P |
| Aircraft | A359/H-SDE2E3GHIJ3J4J5LM1ORWXY/LB1D1 |
Departure
| Time | 2026-04-18 05:40 |
|---|---|
| Airport | Jinan Yaoqiang International Airport (ZSJN) |
Arrival
| Time | 2026-04-18 07:59 |
|---|---|
| Airport | Guangzhou Baiyun International Airport (ZGGG) |
| Time | Latitude | Longitude | Altitude | Speed | Heading |
|---|---|---|---|---|---|
| 2026-04-18 05:03 | 36.85572 | 117.21158 | 92 ft | 0 kts | 270° |
| 2026-04-18 05:29 | 36.85572 | 117.21169 | 92 ft | 2 kts | 270° |
| 2026-04-18 05:29 | 36.85572 | 117.21216 | 90 ft | 5 kts | 270° |
| 2026-04-18 05:29 | 36.85585 | 117.21257 | 90 ft | 5 kts | 182° |
| 2026-04-18 05:29 | 36.85610 | 117.21261 | 90 ft | 0 kts | 186° |
| 2026-04-18 05:30 | 36.85617 | 117.21273 | 89 ft | 2 kts | 328° |
| 2026-04-18 05:30 | 36.85614 | 117.21276 | 90 ft | 0 kts | 351° |
| 2026-04-18 05:31 | 36.85604 | 117.21277 | 89 ft | 2 kts | 358° |
| 2026-04-18 05:31 | 36.85599 | 117.21277 | 90 ft | 0 kts | 352° |
| 2026-04-18 05:35 | 36.85614 | 117.21275 | 90 ft | 12 kts | 354° |
| 2026-04-18 05:36 | 36.85724 | 117.21274 | 89 ft | 9 kts | 16° |
| 2026-04-18 05:36 | 36.85742 | 117.21307 | 91 ft | 5 kts | 69° |
| 2026-04-18 05:36 | 36.85803 | 117.21374 | 89 ft | 13 kts | 19° |
| 2026-04-18 05:36 | 36.85879 | 117.21373 | 90 ft | 12 kts | 357° |
| 2026-04-18 05:37 | 36.85969 | 117.21371 | 91 ft | 17 kts | 0° |
| 2026-04-18 05:37 | 36.86142 | 117.21372 | 90 ft | 30 kts | 0° |
| 2026-04-18 05:37 | 36.86350 | 117.21370 | 89 ft | 29 kts | 0° |
| 2026-04-18 05:37 | 36.86554 | 117.21370 | 89 ft | 27 kts | 359° |
| 2026-04-18 05:38 | 36.86747 | 117.21367 | 90 ft | 28 kts | 1° |
| 2026-04-18 05:38 | 36.86949 | 117.21371 | 90 ft | 30 kts | 1° |
| 2026-04-18 05:38 | 36.87155 | 117.21373 | 90 ft | 29 kts | 359° |
| 2026-04-18 05:38 | 36.87324 | 117.21386 | 92 ft | 3 kts | 40° |
| 2026-04-18 05:39 | 36.87333 | 117.21407 | 89 ft | 4 kts | 65° |
| 2026-04-18 05:39 | 36.87342 | 117.21502 | 92 ft | 15 kts | 94° |
| 2026-04-18 05:39 | 36.87302 | 117.21585 | 99 ft | 10 kts | 154° |
| 2026-04-18 05:39 | 36.87228 | 117.21598 | 94 ft | 18 kts | 179° |
| 2026-04-18 05:40 | 36.86954 | 117.21598 | 94 ft | 66 kts | 180° |
| 2026-04-18 05:40 | 36.86219 | 117.21590 | 95 ft | 149 kts | 174° |
| 2026-04-18 05:40 | 36.84961 | 117.21635 | 462 ft | 200 kts | 181° |
| 2026-04-18 05:40 | 36.83544 | 117.21719 | 1199 ft | 205 kts | 181° |
| 2026-04-18 05:41 | 36.82083 | 117.21752 | 1674 ft | 216 kts | 181° |
| 2026-04-18 05:41 | 36.80530 | 117.21755 | 2255 ft | 223 kts | 181° |
| 2026-04-18 05:41 | 36.78952 | 117.21657 | 2674 ft | 229 kts | 185° |
| 2026-04-18 05:41 | 36.77380 | 117.21593 | 3326 ft | 229 kts | 181° |
| 2026-04-18 05:42 | 36.75791 | 117.21591 | 4074 ft | 227 kts | 180° |
| 2026-04-18 05:42 | 36.74196 | 117.21592 | 4791 ft | 227 kts | 181° |
| 2026-04-18 05:42 | 36.72615 | 117.21591 | 5456 ft | 228 kts | 180° |
| 2026-04-18 05:42 | 36.71047 | 117.21583 | 6069 ft | 230 kts | 180° |
| 2026-04-18 05:43 | 36.69434 | 117.21570 | 6661 ft | 234 kts | 180° |
| 2026-04-18 05:43 | 36.67802 | 117.21557 | 7260 ft | 235 kts | 180° |
| 2026-04-18 05:43 | 36.66154 | 117.21541 | 7871 ft | 238 kts | 180° |
| 2026-04-18 05:43 | 36.64537 | 117.21526 | 8446 ft | 240 kts | 180° |
| 2026-04-18 05:44 | 36.64435 | 117.21525 | 8484 ft | 241 kts | 180° |
| 2026-04-18 05:44 | 36.62745 | 117.21509 | 8988 ft | 249 kts | 179° |
| 2026-04-18 05:44 | 36.60955 | 117.21494 | 9230 ft | 265 kts | 179° |
| 2026-04-18 05:44 | 36.59075 | 117.21479 | 9714 ft | 272 kts | 179° |
| 2026-04-18 05:45 | 36.57177 | 117.21457 | 10257 ft | 277 kts | 179° |
| 2026-04-18 05:45 | 36.55194 | 117.21438 | 10499 ft | 293 kts | 179° |
| 2026-04-18 05:45 | 36.53100 | 117.21419 | 10713 ft | 308 kts | 179° |
| 2026-04-18 05:45 | 36.50904 | 117.21399 | 10910 ft | 323 kts | 179° |
| 2026-04-18 05:46 | 36.48611 | 117.21377 | 11110 ft | 336 kts | 179° |
| 2026-04-18 05:46 | 36.46225 | 117.21354 | 11365 ft | 346 kts | 179° |
| 2026-04-18 05:46 | 36.43802 | 117.21447 | 11755 ft | 352 kts | 173° |
| 2026-04-18 05:46 | 36.41438 | 117.22249 | 12221 ft | 354 kts | 156° |
| 2026-04-18 05:47 | 36.39348 | 117.23875 | 12663 ft | 359 kts | 142° |
| 2026-04-18 05:47 | 36.37425 | 117.25914 | 12980 ft | 367 kts | 139° |
| 2026-04-18 05:47 | 36.35512 | 117.28027 | 13424 ft | 370 kts | 139° |
| 2026-04-18 05:47 | 36.35396 | 117.28154 | 13460 ft | 370 kts | 139° |
| 2026-04-18 05:48 | 36.35068 | 117.28516 | 13526 ft | 371 kts | 139° |
| 2026-04-18 05:48 | 36.33125 | 117.30646 | 13912 ft | 375 kts | 139° |
| 2026-04-18 05:48 | 36.31155 | 117.32793 | 14285 ft | 379 kts | 139° |
| 2026-04-18 05:48 | 36.29110 | 117.34870 | 14677 ft | 381 kts | 146° |
| 2026-04-18 05:49 | 36.26741 | 117.36351 | 15079 ft | 384 kts | 162° |
| 2026-04-18 05:49 | 36.24107 | 117.36904 | 15477 ft | 387 kts | 178° |
| 2026-04-18 05:49 | 36.21405 | 117.36940 | 15889 ft | 390 kts | 180° |
| 2026-04-18 05:49 | 36.19641 | 117.36917 | 16150 ft | 392 kts | 181° |
| 2026-04-18 05:51 | 36.18817 | 117.36904 | 16249 ft | 394 kts | 181° |
| 2026-04-18 05:51 | 36.16362 | 117.36872 | 16588 ft | 398 kts | 180° |
| 2026-04-18 05:52 | 36.13593 | 117.36848 | 17020 ft | 400 kts | 180° |
| 2026-04-18 05:52 | 36.11122 | 117.36832 | 17334 ft | 404 kts | 180° |
| 2026-04-18 05:52 | 36.09849 | 117.36825 | 17483 ft | 406 kts | 180° |
| 2026-04-18 05:52 | 36.07011 | 117.36810 | 17959 ft | 407 kts | 180° |
| 2026-04-18 05:53 | 36.04173 | 117.36796 | 18382 ft | 410 kts | 180° |
| 2026-04-18 05:53 | 36.01314 | 117.36856 | 18790 ft | 410 kts | 176° |
| 2026-04-18 05:53 | 35.98509 | 117.37365 | 19155 ft | 412 kts | 167° |
| 2026-04-18 05:53 | 35.95694 | 117.38231 | 19499 ft | 415 kts | 164° |
| 2026-04-18 05:54 | 35.92922 | 117.39245 | 19857 ft | 418 kts | 162° |
| 2026-04-18 05:54 | 35.90146 | 117.40330 | 20233 ft | 419 kts | 162° |
| 2026-04-18 05:54 | 35.87366 | 117.41431 | 20654 ft | 419 kts | 162° |
| 2026-04-18 05:54 | 35.84575 | 117.42524 | 20978 ft | 422 kts | 162° |
| 2026-04-18 05:55 | 35.81761 | 117.43608 | 21278 ft | 426 kts | 162° |
| 2026-04-18 05:55 | 35.78926 | 117.44683 | 21669 ft | 427 kts | 163° |
| 2026-04-18 05:55 | 35.76071 | 117.45753 | 21932 ft | 431 kts | 163° |
| 2026-04-18 05:55 | 35.73180 | 117.46830 | 22079 ft | 438 kts | 163° |
| 2026-04-18 05:56 | 35.70246 | 117.47921 | 22210 ft | 444 kts | 163° |
| 2026-04-18 05:56 | 35.67264 | 117.49028 | 22326 ft | 450 kts | 163° |
| 2026-04-18 05:56 | 35.65275 | 117.49766 | 22424 ft | 454 kts | 163° |
| 2026-04-18 05:56 | 35.62232 | 117.50897 | 22572 ft | 459 kts | 163° |
| 2026-04-18 05:57 | 35.55002 | 117.53579 | 22934 ft | 469 kts | 163° |
| 2026-04-18 05:57 | 35.52932 | 117.54346 | 23122 ft | 469 kts | 163° |
| 2026-04-18 05:57 | 35.49802 | 117.55505 | 23429 ft | 470 kts | 163° |
| 2026-04-18 05:58 | 35.46664 | 117.56666 | 23655 ft | 472 kts | 163° |
| 2026-04-18 05:58 | 35.42484 | 117.58212 | 23883 ft | 476 kts | 163° |
| 2026-04-18 05:58 | 35.40339 | 117.59005 | 24060 ft | 476 kts | 163° |
| 2026-04-18 05:58 | 35.37168 | 117.60176 | 24305 ft | 477 kts | 163° |
| 2026-04-18 05:59 | 35.33991 | 117.61348 | 24501 ft | 479 kts | 163° |
| 2026-04-18 05:59 | 35.30792 | 117.62527 | 24689 ft | 481 kts | 163° |
| 2026-04-18 05:59 | 35.27579 | 117.63710 | 24891 ft | 482 kts | 163° |
| 2026-04-18 05:59 | 35.24364 | 117.64893 | 25147 ft | 483 kts | 163° |
| 2026-04-18 06:00 | 35.21143 | 117.66078 | 25370 ft | 484 kts | 164° |
| 2026-04-18 06:00 | 35.17952 | 117.67251 | 25546 ft | 487 kts | 163° |
| 2026-04-18 06:00 | 35.14701 | 117.68444 | 25751 ft | 488 kts | 163° |
| 2026-04-18 06:00 | 35.11444 | 117.69640 | 25999 ft | 489 kts | 163° |
| 2026-04-18 06:01 | 35.08189 | 117.70833 | 26249 ft | 490 kts | 164° |
| 2026-04-18 06:01 | 35.04917 | 117.72032 | 26435 ft | 492 kts | 164° |
| 2026-04-18 06:01 | 35.01624 | 117.73239 | 26612 ft | 494 kts | 163° |
| 2026-04-18 06:01 | 34.98331 | 117.74445 | 26876 ft | 495 kts | 164° |
| 2026-04-18 06:02 | 34.95031 | 117.75653 | 27131 ft | 496 kts | 164° |
| 2026-04-18 06:02 | 34.91723 | 117.76862 | 27331 ft | 498 kts | 164° |
| 2026-04-18 06:02 | 34.88400 | 117.78076 | 27522 ft | 500 kts | 164° |
| 2026-04-18 06:02 | 34.85067 | 117.79293 | 27786 ft | 501 kts | 164° |
| 2026-04-18 06:03 | 34.81723 | 117.80519 | 28043 ft | 502 kts | 164° |
| 2026-04-18 06:03 | 34.78376 | 117.81749 | 28262 ft | 503 kts | 164° |
| 2026-04-18 06:03 | 34.75013 | 117.82964 | 28478 ft | 505 kts | 164° |
| 2026-04-18 06:03 | 34.71641 | 117.84172 | 28717 ft | 506 kts | 164° |
| 2026-04-18 06:04 | 34.68258 | 117.85381 | 28945 ft | 508 kts | 164° |
| 2026-04-18 06:04 | 34.64862 | 117.86595 | 29157 ft | 509 kts | 164° |
| 2026-04-18 06:04 | 34.61472 | 117.87808 | 29493 ft | 508 kts | 164° |
| 2026-04-18 06:04 | 34.58090 | 117.89020 | 29846 ft | 507 kts | 165° |
| 2026-04-18 06:05 | 34.54756 | 117.90215 | 30225 ft | 505 kts | 165° |
| 2026-04-18 06:05 | 34.51348 | 117.91436 | 30574 ft | 504 kts | 165° |
| 2026-04-18 06:05 | 34.47991 | 117.92637 | 30930 ft | 502 kts | 165° |
| 2026-04-18 06:05 | 34.44644 | 117.93835 | 31307 ft | 501 kts | 165° |
| 2026-04-18 06:06 | 34.41305 | 117.95028 | 31691 ft | 499 kts | 165° |
| 2026-04-18 06:06 | 34.38020 | 117.96186 | 32076 ft | 498 kts | 166° |
| 2026-04-18 06:06 | 34.34635 | 117.97003 | 32458 ft | 495 kts | 174° |
| 2026-04-18 06:06 | 34.31213 | 117.97217 | 32821 ft | 492 kts | 183° |
| 2026-04-18 06:07 | 34.27823 | 117.96768 | 33165 ft | 489 kts | 193° |
| 2026-04-18 06:07 | 34.24568 | 117.95646 | 33520 ft | 486 kts | 202° |
| 2026-04-18 06:07 | 34.21532 | 117.93883 | 33864 ft | 483 kts | 212° |
| 2026-04-18 06:07 | 34.18743 | 117.91628 | 34087 ft | 483 kts | 217° |
| 2026-04-18 06:08 | 34.16045 | 117.89218 | 34110 ft | 481 kts | 218° |
| 2026-04-18 06:08 | 34.11253 | 117.83625 | 34105 ft | 479 kts | 233° |
| 2026-04-18 06:09 | 34.08047 | 117.76627 | 34105 ft | 478 kts | 251° |
| 2026-04-18 06:09 | 34.06775 | 117.68795 | 34101 ft | 478 kts | 264° |
| 2026-04-18 06:10 | 34.06314 | 117.60801 | 34101 ft | 478 kts | 266° |
| 2026-04-18 06:10 | 34.05272 | 117.52896 | 34101 ft | 478 kts | 253° |
| 2026-04-18 06:11 | 34.03051 | 117.45346 | 34099 ft | 478 kts | 249° |
| 2026-04-18 06:11 | 34.00602 | 117.37888 | 34093 ft | 478 kts | 249° |
| 2026-04-18 06:12 | 33.97818 | 117.30631 | 34096 ft | 478 kts | 239° |
| 2026-04-18 06:12 | 33.93567 | 117.24494 | 34095 ft | 480 kts | 222° |
| 2026-04-18 06:13 | 33.87872 | 117.20293 | 34096 ft | 485 kts | 203° |
| 2026-04-18 06:13 | 33.81261 | 117.18579 | 34092 ft | 491 kts | 185° |
| 2026-04-18 06:14 | 33.74462 | 117.19619 | 34096 ft | 499 kts | 165° |
| 2026-04-18 06:14 | 33.67712 | 117.21402 | 34098 ft | 495 kts | 177° |
| 2026-04-18 06:15 | 33.60894 | 117.22003 | 34096 ft | 494 kts | 179° |
| 2026-04-18 06:15 | 33.53980 | 117.22339 | 34093 ft | 494 kts | 181° |
| 2026-04-18 06:16 | 33.47154 | 117.22606 | 34097 ft | 494 kts | 181° |
| 2026-04-18 06:16 | 33.40279 | 117.22885 | 34090 ft | 494 kts | 181° |
| 2026-04-18 06:17 | 33.33403 | 117.23179 | 34094 ft | 494 kts | 181° |
| 2026-04-18 06:17 | 33.26526 | 117.23478 | 34099 ft | 494 kts | 181° |
| 2026-04-18 06:18 | 33.19651 | 117.23777 | 34100 ft | 494 kts | 181° |
| 2026-04-18 06:18 | 33.12774 | 117.24074 | 34097 ft | 494 kts | 181° |
| 2026-04-18 06:19 | 33.05895 | 117.24372 | 34094 ft | 495 kts | 181° |
| 2026-04-18 06:19 | 32.99017 | 117.24668 | 34093 ft | 495 kts | 181° |
| 2026-04-18 06:20 | 32.92135 | 117.24964 | 34095 ft | 495 kts | 181° |
| 2026-04-18 06:20 | 32.85251 | 117.25260 | 34090 ft | 495 kts | 181° |
| 2026-04-18 06:21 | 32.78366 | 117.25555 | 34097 ft | 496 kts | 181° |
| 2026-04-18 06:21 | 32.71462 | 117.25851 | 34098 ft | 496 kts | 181° |
| 2026-04-18 06:22 | 32.64571 | 117.26157 | 34096 ft | 496 kts | 181° |
| 2026-04-18 06:22 | 32.57675 | 117.26470 | 34094 ft | 496 kts | 182° |
| 2026-04-18 06:23 | 32.50830 | 117.26783 | 34095 ft | 496 kts | 182° |
| 2026-04-18 06:23 | 32.43937 | 117.27090 | 34096 ft | 496 kts | 182° |
| 2026-04-18 06:24 | 32.37043 | 117.27391 | 34084 ft | 496 kts | 182° |
| 2026-04-18 06:24 | 32.30153 | 117.27694 | 34093 ft | 495 kts | 182° |
| 2026-04-18 06:25 | 32.23269 | 117.27997 | 34097 ft | 495 kts | 182° |
| 2026-04-18 06:25 | 32.16388 | 117.28301 | 34099 ft | 495 kts | 182° |
| 2026-04-18 06:26 | 32.09506 | 117.28605 | 34091 ft | 494 kts | 183° |
| 2026-04-18 06:26 | 32.02639 | 117.28909 | 34095 ft | 493 kts | 183° |
| 2026-04-18 06:27 | 31.95777 | 117.29206 | 34097 ft | 493 kts | 183° |
| 2026-04-18 06:27 | 31.88916 | 117.29557 | 34095 ft | 494 kts | 183° |
| 2026-04-18 06:28 | 31.82057 | 117.29925 | 34095 ft | 493 kts | 183° |
| 2026-04-18 06:28 | 31.75231 | 117.30017 | 34099 ft | 488 kts | 188° |
| 2026-04-18 06:29 | 31.68448 | 117.29699 | 34093 ft | 488 kts | 188° |
| 2026-04-18 06:29 | 31.61721 | 117.29318 | 34083 ft | 487 kts | 189° |
| 2026-04-18 06:30 | 31.54951 | 117.28934 | 34093 ft | 487 kts | 189° |
| 2026-04-18 06:30 | 31.48188 | 117.28592 | 34090 ft | 487 kts | 189° |
| 2026-04-18 06:31 | 31.41412 | 117.28284 | 34087 ft | 487 kts | 189° |
| 2026-04-18 06:31 | 31.34643 | 117.27976 | 34086 ft | 486 kts | 189° |
| 2026-04-18 06:32 | 31.27885 | 117.27663 | 34085 ft | 486 kts | 189° |
| 2026-04-18 06:32 | 31.21132 | 117.27343 | 34087 ft | 485 kts | 190° |
| 2026-04-18 06:33 | 31.14390 | 117.26963 | 34054 ft | 485 kts | 191° |
| 2026-04-18 06:33 | 31.07650 | 117.26566 | 34087 ft | 485 kts | 191° |
| 2026-04-18 06:34 | 31.00899 | 117.26181 | 34076 ft | 485 kts | 191° |
| 2026-04-18 06:34 | 30.94154 | 117.25803 | 34076 ft | 486 kts | 191° |
| 2026-04-18 06:35 | 30.87398 | 117.25427 | 34085 ft | 486 kts | 191° |
| 2026-04-18 06:35 | 30.80652 | 117.25054 | 34081 ft | 486 kts | 191° |
| 2026-04-18 06:36 | 30.73898 | 117.24690 | 34073 ft | 486 kts | 191° |
| 2026-04-18 06:36 | 30.67135 | 117.24349 | 34073 ft | 486 kts | 191° |
| 2026-04-18 06:37 | 30.60380 | 117.24010 | 34079 ft | 486 kts | 191° |
| 2026-04-18 06:37 | 30.53623 | 117.23667 | 34079 ft | 486 kts | 191° |
| 2026-04-18 06:38 | 30.46875 | 117.23322 | 34074 ft | 486 kts | 191° |
| 2026-04-18 06:38 | 30.40119 | 117.22978 | 34031 ft | 486 kts | 192° |
| 2026-04-18 06:39 | 30.33418 | 117.22643 | 34072 ft | 485 kts | 192° |
| 2026-04-18 06:39 | 30.26670 | 117.22307 | 34073 ft | 485 kts | 192° |
| 2026-04-18 06:40 | 30.19927 | 117.21969 | 34069 ft | 485 kts | 192° |
| 2026-04-18 06:40 | 30.13181 | 117.21632 | 34061 ft | 485 kts | 192° |
| 2026-04-18 06:41 | 30.06495 | 117.21017 | 34077 ft | 475 kts | 200° |
| 2026-04-18 06:41 | 30.03335 | 117.20084 | 34060 ft | 464 kts | 208° |
| 2026-04-18 06:41 | 30.00404 | 117.18648 | 34075 ft | 452 kts | 216° |
| 2026-04-18 06:42 | 29.95449 | 117.14458 | 34059 ft | 436 kts | 232° |
| 2026-04-18 06:42 | 29.91650 | 117.09111 | 34055 ft | 430 kts | 238° |
| 2026-04-18 06:43 | 29.88133 | 117.03552 | 34057 ft | 428 kts | 239° |
| 2026-04-18 06:43 | 29.84637 | 116.97995 | 34063 ft | 428 kts | 239° |
| 2026-04-18 06:44 | 29.81119 | 116.92474 | 34061 ft | 428 kts | 239° |
| 2026-04-18 06:44 | 29.77578 | 116.86967 | 34061 ft | 428 kts | 239° |
| 2026-04-18 06:45 | 29.74030 | 116.81466 | 34058 ft | 429 kts | 238° |
| 2026-04-18 06:45 | 29.71074 | 116.76893 | 34055 ft | 429 kts | 239° |
| 2026-04-18 06:46 | 29.67519 | 116.71389 | 34058 ft | 428 kts | 239° |
| 2026-04-18 06:46 | 29.63962 | 116.65888 | 34055 ft | 428 kts | 239° |
| 2026-04-18 06:47 | 29.60411 | 116.60401 | 34055 ft | 428 kts | 239° |
| 2026-04-18 06:47 | 29.56276 | 116.54027 | 34055 ft | 428 kts | 239° |
| 2026-04-18 06:48 | 29.53294 | 116.49448 | 34038 ft | 427 kts | 239° |
| 2026-04-18 06:48 | 29.49735 | 116.43977 | 34052 ft | 428 kts | 239° |
| 2026-04-18 06:49 | 29.46177 | 116.38502 | 34055 ft | 428 kts | 239° |
| 2026-04-18 06:49 | 29.42622 | 116.33029 | 34050 ft | 428 kts | 239° |
| 2026-04-18 06:50 | 29.39054 | 116.27567 | 34052 ft | 428 kts | 239° |
| 2026-04-18 06:50 | 29.35507 | 116.22150 | 34052 ft | 428 kts | 239° |
| 2026-04-18 06:51 | 29.31935 | 116.16697 | 34045 ft | 428 kts | 238° |
| 2026-04-18 06:51 | 29.28361 | 116.11243 | 34047 ft | 428 kts | 238° |
| 2026-04-18 06:52 | 29.24783 | 116.05791 | 34047 ft | 428 kts | 238° |
| 2026-04-18 06:52 | 29.21202 | 116.00343 | 34046 ft | 428 kts | 238° |
| 2026-04-18 06:53 | 29.17619 | 115.94899 | 34056 ft | 428 kts | 238° |
| 2026-04-18 06:53 | 29.13520 | 115.89885 | 34027 ft | 441 kts | 225° |
| 2026-04-18 06:53 | 29.10914 | 115.87958 | 34048 ft | 453 kts | 216° |
| 2026-04-18 06:54 | 29.07948 | 115.86603 | 34048 ft | 467 kts | 205° |
| 2026-04-18 06:54 | 29.04696 | 115.85949 | 34048 ft | 484 kts | 193° |
| 2026-04-18 06:54 | 29.01282 | 115.86106 | 34047 ft | 502 kts | 180° |
| 2026-04-18 06:54 | 28.97852 | 115.87153 | 34040 ft | 521 kts | 167° |
| 2026-04-18 06:55 | 28.94504 | 115.88773 | 34046 ft | 519 kts | 170° |
| 2026-04-18 06:55 | 28.87653 | 115.90987 | 34015 ft | 501 kts | 181° |
| 2026-04-18 06:56 | 28.80786 | 115.91552 | 34044 ft | 491 kts | 187° |
| 2026-04-18 06:56 | 28.73968 | 115.91721 | 34048 ft | 489 kts | 188° |
| 2026-04-18 06:57 | 28.67163 | 115.91820 | 34044 ft | 489 kts | 188° |
| 2026-04-18 06:57 | 28.56948 | 115.92017 | 34045 ft | 489 kts | 188° |
| 2026-04-18 06:58 | 28.50138 | 115.92170 | 34044 ft | 489 kts | 188° |
| 2026-04-18 06:58 | 28.43399 | 115.91914 | 34041 ft | 476 kts | 198° |
| 2026-04-18 06:59 | 28.37128 | 115.90004 | 34041 ft | 463 kts | 207° |
| 2026-04-18 06:59 | 28.31068 | 115.87582 | 34037 ft | 460 kts | 208° |
| 2026-04-18 07:00 | 28.25064 | 115.85094 | 34041 ft | 459 kts | 208° |
| 2026-04-18 07:00 | 28.19053 | 115.82627 | 34041 ft | 459 kts | 208° |
| 2026-04-18 07:01 | 28.13037 | 115.80185 | 34041 ft | 460 kts | 208° |
| 2026-04-18 07:01 | 28.07011 | 115.77752 | 34037 ft | 459 kts | 208° |
| 2026-04-18 07:02 | 28.01045 | 115.75348 | 34044 ft | 458 kts | 208° |
| 2026-04-18 07:02 | 27.94999 | 115.72915 | 34048 ft | 458 kts | 208° |
| 2026-04-18 07:03 | 27.88998 | 115.70511 | 34047 ft | 458 kts | 208° |
| 2026-04-18 07:03 | 27.83041 | 115.68111 | 34047 ft | 457 kts | 207° |
| 2026-04-18 07:04 | 27.77056 | 115.65720 | 34042 ft | 455 kts | 207° |
| 2026-04-18 07:04 | 27.71090 | 115.63325 | 34060 ft | 456 kts | 208° |
| 2026-04-18 07:05 | 27.65101 | 115.60898 | 34037 ft | 458 kts | 208° |
| 2026-04-18 07:05 | 27.59097 | 115.58473 | 34031 ft | 458 kts | 207° |
| 2026-04-18 07:06 | 27.53103 | 115.56059 | 34044 ft | 457 kts | 207° |
| 2026-04-18 07:06 | 27.47111 | 115.53651 | 34041 ft | 458 kts | 207° |
| 2026-04-18 07:07 | 27.41118 | 115.51234 | 34043 ft | 457 kts | 207° |
| 2026-04-18 07:07 | 27.35126 | 115.48824 | 34029 ft | 457 kts | 207° |
| 2026-04-18 07:08 | 27.29140 | 115.46421 | 34046 ft | 457 kts | 207° |
| 2026-04-18 07:08 | 27.23146 | 115.44019 | 34043 ft | 457 kts | 207° |
| 2026-04-18 07:09 | 27.17151 | 115.41620 | 34044 ft | 457 kts | 207° |
| 2026-04-18 07:09 | 27.11155 | 115.39221 | 34046 ft | 457 kts | 207° |
| 2026-04-18 07:10 | 27.05176 | 115.36833 | 34045 ft | 456 kts | 207° |
| 2026-04-18 07:10 | 26.99205 | 115.34450 | 34044 ft | 455 kts | 207° |
| 2026-04-18 07:11 | 26.93240 | 115.32072 | 34055 ft | 456 kts | 207° |
| 2026-04-18 07:11 | 26.87295 | 115.29704 | 34044 ft | 457 kts | 207° |
| 2026-04-18 07:12 | 26.81302 | 115.27322 | 34043 ft | 456 kts | 207° |
| 2026-04-18 07:12 | 26.75334 | 115.24954 | 34051 ft | 454 kts | 207° |
| 2026-04-18 07:13 | 26.69379 | 115.22572 | 34050 ft | 454 kts | 207° |
| 2026-04-18 07:13 | 26.63429 | 115.20192 | 34055 ft | 454 kts | 207° |
| 2026-04-18 07:14 | 26.57479 | 115.17815 | 34046 ft | 454 kts | 207° |
| 2026-04-18 07:14 | 26.51529 | 115.15447 | 34051 ft | 454 kts | 207° |
| 2026-04-18 07:15 | 26.45581 | 115.13083 | 34046 ft | 454 kts | 207° |
| 2026-04-18 07:15 | 26.39636 | 115.10719 | 34048 ft | 454 kts | 207° |
| 2026-04-18 07:16 | 26.33683 | 115.08357 | 34010 ft | 454 kts | 206° |
| 2026-04-18 07:16 | 26.27739 | 115.06003 | 34055 ft | 453 kts | 207° |
| 2026-04-18 07:17 | 26.21796 | 115.03659 | 34047 ft | 453 kts | 207° |
| 2026-04-18 07:17 | 26.15907 | 115.01322 | 34051 ft | 452 kts | 207° |
| 2026-04-18 07:18 | 26.09966 | 114.98967 | 34043 ft | 454 kts | 207° |
| 2026-04-18 07:18 | 26.04009 | 114.96626 | 34041 ft | 454 kts | 207° |
| 2026-04-18 07:19 | 25.98054 | 114.94278 | 34040 ft | 454 kts | 207° |
| 2026-04-18 07:19 | 25.92098 | 114.91933 | 34035 ft | 454 kts | 207° |
| 2026-04-18 07:20 | 25.86143 | 114.89590 | 34035 ft | 454 kts | 207° |
| 2026-04-18 07:20 | 25.80127 | 114.87401 | 34027 ft | 459 kts | 202° |
| 2026-04-18 07:21 | 25.73904 | 114.85746 | 34034 ft | 460 kts | 201° |
| 2026-04-18 07:21 | 25.67657 | 114.84199 | 34037 ft | 460 kts | 200° |
| 2026-04-18 07:22 | 25.61402 | 114.82665 | 34033 ft | 460 kts | 200° |
| 2026-04-18 07:22 | 25.55149 | 114.81122 | 34032 ft | 460 kts | 200° |
| 2026-04-18 07:23 | 25.48907 | 114.79578 | 34020 ft | 459 kts | 200° |
| 2026-04-18 07:23 | 25.42671 | 114.78034 | 34036 ft | 459 kts | 200° |
| 2026-04-18 07:24 | 25.36440 | 114.76493 | 34024 ft | 459 kts | 200° |
| 2026-04-18 07:24 | 25.30212 | 114.74954 | 34037 ft | 459 kts | 200° |
| 2026-04-18 07:25 | 25.23980 | 114.73417 | 34027 ft | 459 kts | 200° |
| 2026-04-18 07:25 | 25.17774 | 114.71887 | 34029 ft | 461 kts | 200° |
| 2026-04-18 07:26 | 25.11513 | 114.70340 | 34032 ft | 462 kts | 200° |
| 2026-04-18 07:26 | 25.05247 | 114.68803 | 34031 ft | 460 kts | 200° |
| 2026-04-18 07:27 | 24.98998 | 114.67274 | 34018 ft | 460 kts | 199° |
| 2026-04-18 07:27 | 24.92732 | 114.65736 | 34028 ft | 462 kts | 199° |
| 2026-04-18 07:28 | 24.86450 | 114.64191 | 34032 ft | 463 kts | 199° |
| 2026-04-18 07:28 | 24.80168 | 114.62656 | 34032 ft | 462 kts | 199° |
| 2026-04-18 07:29 | 24.73888 | 114.61110 | 34027 ft | 463 kts | 199° |
| 2026-04-18 07:29 | 24.67931 | 114.58736 | 34023 ft | 452 kts | 213° |
| 2026-04-18 07:30 | 24.62424 | 114.55431 | 34024 ft | 450 kts | 215° |
| 2026-04-18 07:30 | 24.57000 | 114.51976 | 34025 ft | 451 kts | 215° |
| 2026-04-18 07:31 | 24.51579 | 114.48525 | 34022 ft | 450 kts | 215° |
| 2026-04-18 07:31 | 24.46150 | 114.45092 | 33997 ft | 450 kts | 215° |
| 2026-04-18 07:32 | 24.40702 | 114.41646 | 34002 ft | 453 kts | 215° |
| 2026-04-18 07:32 | 24.35217 | 114.38233 | 34027 ft | 453 kts | 215° |
| 2026-04-18 07:33 | 24.29770 | 114.34838 | 34020 ft | 454 kts | 215° |
| 2026-04-18 07:33 | 24.24297 | 114.31400 | 34017 ft | 453 kts | 215° |
| 2026-04-18 07:34 | 24.18831 | 114.27960 | 34006 ft | 454 kts | 215° |
| 2026-04-18 07:34 | 24.13347 | 114.24522 | 34016 ft | 454 kts | 215° |
| 2026-04-18 07:35 | 24.07854 | 114.21092 | 34019 ft | 455 kts | 215° |
| 2026-04-18 07:35 | 24.02361 | 114.17664 | 34014 ft | 455 kts | 215° |
| 2026-04-18 07:36 | 23.97793 | 114.14814 | 34016 ft | 455 kts | 215° |
| 2026-04-18 07:36 | 23.92299 | 114.11377 | 34011 ft | 456 kts | 215° |
| 2026-04-18 07:37 | 23.86790 | 114.07904 | 34014 ft | 458 kts | 215° |
| 2026-04-18 07:37 | 23.81269 | 114.04432 | 34004 ft | 457 kts | 215° |
| 2026-04-18 07:38 | 23.75773 | 114.00971 | 34014 ft | 456 kts | 215° |
| 2026-04-18 07:38 | 23.70269 | 113.97527 | 34016 ft | 456 kts | 215° |
| 2026-04-18 07:39 | 23.64761 | 113.94057 | 34001 ft | 459 kts | 215° |
| 2026-04-18 07:39 | 23.59242 | 113.90554 | 34008 ft | 460 kts | 215° |
| 2026-04-18 07:40 | 23.53702 | 113.87043 | 34006 ft | 461 kts | 215° |
| 2026-04-18 07:40 | 23.48164 | 113.83524 | 34004 ft | 461 kts | 215° |
| 2026-04-18 07:41 | 23.42637 | 113.80005 | 34005 ft | 460 kts | 215° |
| 2026-04-18 07:41 | 23.36820 | 113.77031 | 33693 ft | 462 kts | 205° |
| 2026-04-18 07:42 | 23.33766 | 113.75981 | 33100 ft | 459 kts | 203° |
| 2026-04-18 07:42 | 23.30709 | 113.74991 | 32412 ft | 458 kts | 202° |
| 2026-04-18 07:42 | 23.27692 | 113.74032 | 31747 ft | 456 kts | 202° |
| 2026-04-18 07:42 | 23.24655 | 113.73075 | 31084 ft | 455 kts | 202° |
| 2026-04-18 07:43 | 23.21572 | 113.72104 | 30430 ft | 455 kts | 202° |
| 2026-04-18 07:43 | 23.18559 | 113.71154 | 29769 ft | 459 kts | 202° |
| 2026-04-18 07:43 | 23.15501 | 113.70165 | 29008 ft | 456 kts | 204° |
| 2026-04-18 07:43 | 23.12581 | 113.68906 | 28270 ft | 448 kts | 211° |
| 2026-04-18 07:44 | 23.09941 | 113.67292 | 27562 ft | 424 kts | 219° |
| 2026-04-18 07:44 | 23.07669 | 113.65380 | 26899 ft | 402 kts | 226° |
| 2026-04-18 07:44 | 23.05783 | 113.63239 | 26237 ft | 384 kts | 234° |
| 2026-04-18 07:44 | 23.04270 | 113.60929 | 25574 ft | 368 kts | 242° |
| 2026-04-18 07:45 | 23.03167 | 113.58486 | 24934 ft | 354 kts | 253° |
| 2026-04-18 07:45 | 23.02712 | 113.55924 | 24310 ft | 342 kts | 268° |
| 2026-04-18 07:45 | 23.02997 | 113.53410 | 23705 ft | 334 kts | 284° |
| 2026-04-18 07:45 | 23.03691 | 113.51021 | 23015 ft | 331 kts | 287° |
| 2026-04-18 07:46 | 23.04449 | 113.48669 | 22294 ft | 330 kts | 288° |
| 2026-04-18 07:46 | 23.05213 | 113.46322 | 21590 ft | 329 kts | 288° |
| 2026-04-18 07:46 | 23.05973 | 113.43989 | 20906 ft | 327 kts | 288° |
| 2026-04-18 07:46 | 23.06729 | 113.41668 | 20241 ft | 325 kts | 288° |
| 2026-04-18 07:47 | 23.07487 | 113.39363 | 19588 ft | 323 kts | 289° |
| 2026-04-18 07:47 | 23.08325 | 113.37137 | 18938 ft | 313 kts | 282° |
| 2026-04-18 07:47 | 23.08324 | 113.34834 | 18327 ft | 305 kts | 255° |
| 2026-04-18 07:47 | 23.07309 | 113.32857 | 17639 ft | 303 kts | 227° |
| 2026-04-18 07:48 | 23.05520 | 113.31680 | 16934 ft | 305 kts | 198° |
| 2026-04-18 07:48 | 23.03408 | 113.31540 | 16255 ft | 306 kts | 178° |
| 2026-04-18 07:48 | 23.01289 | 113.31665 | 15580 ft | 303 kts | 182° |
| 2026-04-18 07:48 | 22.99199 | 113.31574 | 14920 ft | 299 kts | 188° |
| 2026-04-18 07:49 | 22.97147 | 113.31303 | 14276 ft | 296 kts | 192° |
| 2026-04-18 07:49 | 22.95132 | 113.30916 | 13635 ft | 293 kts | 194° |
| 2026-04-18 07:49 | 22.93170 | 113.30389 | 12917 ft | 287 kts | 205° |
| 2026-04-18 07:49 | 22.91636 | 113.29116 | 12224 ft | 276 kts | 237° |
| 2026-04-18 07:50 | 22.91016 | 113.27217 | 11553 ft | 267 kts | 270° |
| 2026-04-18 07:50 | 22.91315 | 113.25249 | 10889 ft | 264 kts | 286° |
| 2026-04-18 07:50 | 22.91841 | 113.23349 | 10232 ft | 263 kts | 287° |
| 2026-04-18 07:50 | 22.92442 | 113.21488 | 9564 ft | 261 kts | 296° |
| 2026-04-18 07:51 | 22.93630 | 113.20037 | 8863 ft | 262 kts | 327° |
| 2026-04-18 07:51 | 22.95387 | 113.19550 | 8175 ft | 267 kts | 1° |
| 2026-04-18 07:51 | 22.97212 | 113.19915 | 7500 ft | 268 kts | 12° |
| 2026-04-18 07:51 | 22.99017 | 113.20449 | 6833 ft | 267 kts | 13° |
| 2026-04-18 07:52 | 23.00803 | 113.20978 | 6177 ft | 266 kts | 13° |
| 2026-04-18 07:52 | 23.02590 | 113.21483 | 5494 ft | 264 kts | 13° |
| 2026-04-18 07:52 | 23.04333 | 113.21965 | 5100 ft | 251 kts | 12° |
| 2026-04-18 07:52 | 23.05983 | 113.22412 | 4991 ft | 242 kts | 12° |
| 2026-04-18 07:53 | 23.07613 | 113.22853 | 4976 ft | 242 kts | 12° |
| 2026-04-18 07:53 | 23.09223 | 113.23287 | 4976 ft | 241 kts | 12° |
| 2026-04-18 07:53 | 23.10802 | 113.23717 | 4972 ft | 241 kts | 12° |
| 2026-04-18 07:53 | 23.12435 | 113.24169 | 4857 ft | 241 kts | 13° |
| 2026-04-18 07:54 | 23.14026 | 113.24610 | 4606 ft | 232 kts | 12° |
| 2026-04-18 07:54 | 23.15580 | 113.25023 | 4280 ft | 229 kts | 12° |
| 2026-04-18 07:54 | 23.17121 | 113.25434 | 3936 ft | 227 kts | 12° |
| 2026-04-18 07:54 | 23.18653 | 113.25847 | 3619 ft | 227 kts | 13° |
| 2026-04-18 07:55 | 23.20159 | 113.26252 | 3308 ft | 221 kts | 12° |
| 2026-04-18 07:55 | 23.21618 | 113.26644 | 3040 ft | 207 kts | 13° |
| 2026-04-18 07:55 | 23.22953 | 113.27004 | 2801 ft | 192 kts | 13° |
| 2026-04-18 07:55 | 23.24206 | 113.27342 | 2541 ft | 178 kts | 13° |
| 2026-04-18 07:56 | 23.25372 | 113.27655 | 2338 ft | 168 kts | 13° |
| 2026-04-18 07:56 | 23.26467 | 113.27950 | 2104 ft | 157 kts | 13° |
| 2026-04-18 07:56 | 23.27503 | 113.28229 | 1922 ft | 152 kts | 13° |
| 2026-04-18 07:56 | 23.28526 | 113.28504 | 1721 ft | 150 kts | 13° |
| 2026-04-18 07:57 | 23.29536 | 113.28775 | 1521 ft | 149 kts | 13° |
| 2026-04-18 07:57 | 23.30545 | 113.29046 | 1326 ft | 149 kts | 13° |
| 2026-04-18 07:57 | 23.31550 | 113.29317 | 1134 ft | 149 kts | 13° |
| 2026-04-18 07:57 | 23.32551 | 113.29586 | 952 ft | 148 kts | 13° |
| 2026-04-18 07:58 | 23.34539 | 113.30122 | 581 ft | 146 kts | 13° |
| 2026-04-18 07:58 | 23.35522 | 113.30392 | 370 ft | 146 kts | 13° |
| 2026-04-18 07:58 | 23.36514 | 113.30655 | 197 ft | 147 kts | 13° |
| 2026-04-18 07:59 | 23.37503 | 113.30913 | 66 ft | 144 kts | 13° |
| 2026-04-18 07:59 | 23.38405 | 113.31169 | 58 ft | 123 kts | 9° |
| 2026-04-18 07:59 | 23.39046 | 113.31334 | 56 ft | 55 kts | 14° |
| 2026-04-18 07:59 | 23.39166 | 113.31365 | 57 ft | 0 kts | 13° |
| 2026-04-18 08:00 | 23.39169 | 113.31366 | 62 ft | 3 kts | 13° |
| 2026-04-18 08:00 | 23.39226 | 113.31381 | 55 ft | 15 kts | 13° |
| 2026-04-18 08:00 | 23.39333 | 113.31392 | 59 ft | 16 kts | 358° |
| 2026-04-18 08:00 | 23.39442 | 113.31375 | 56 ft | 16 kts | 348° |
| 2026-04-18 08:01 | 23.39563 | 113.31346 | 60 ft | 19 kts | 347° |
| 2026-04-18 08:01 | 23.39697 | 113.31311 | 61 ft | 19 kts | 341° |
| 2026-04-18 08:01 | 23.39762 | 113.31214 | 60 ft | 15 kts | 286° |
| 2026-04-18 08:01 | 23.39789 | 113.31094 | 61 ft | 18 kts | 284° |
| 2026-04-18 08:02 | 23.39797 | 113.30960 | 57 ft | 15 kts | 242° |
| 2026-04-18 08:02 | 23.39736 | 113.30888 | 55 ft | 11 kts | 254° |
| 2026-04-18 08:02 | 23.39735 | 113.30809 | 63 ft | 11 kts | 278° |
| 2026-04-18 08:02 | 23.39744 | 113.30719 | 58 ft | 11 kts | 269° |
| 2026-04-18 08:03 | 23.39748 | 113.30669 | 60 ft | 7 kts | 277° |
| 2026-04-18 08:03 | 23.39756 | 113.30616 | 58 ft | 3 kts | 279° |
| 2026-04-18 08:03 | 23.39758 | 113.30604 | 57 ft | 0 kts | 282° |
| 2026-04-18 08:05 | 23.39771 | 113.30586 | 59 ft | 0 kts | 259° |
| 2026-04-18 08:06 | 23.39711 | 113.30595 | 57 ft | 0 kts | 284° |
| 2026-04-18 08:06 | 23.39711 | 113.30597 | 57 ft | 0 kts | 284° |
| 2026-04-18 08:23 | 23.39711 | 113.30594 | 65 ft | 0 kts | 284° |